createdAt,value
2023-12-30T00:02:22.759Z,101373.78
2023-12-30T00:04:49.396Z,101377.13
2023-12-30T00:07:16.046Z,101376.13
2023-12-30T00:09:42.725Z,101379.41
2023-12-30T00:12:10.329Z,101379.91
2023-12-30T00:14:36.898Z,101383.81
2023-12-30T00:17:03.977Z,101387.41
2023-12-30T00:19:30.691Z,101394.00
2023-12-30T00:21:57.400Z,101378.69
2023-12-30T00:24:24.030Z,101381.31
2023-12-30T00:26:51.352Z,101377.00
2023-12-30T00:29:17.962Z,101373.25
2023-12-30T00:31:44.564Z,101384.75
2023-12-30T00:34:11.428Z,101389.56
2023-12-30T00:36:43.127Z,101387.41
2023-12-30T00:39:09.677Z,101389.25
2023-12-30T00:41:36.196Z,101391.19
2023-12-30T00:44:02.867Z,101392.84
2023-12-30T00:46:29.515Z,101396.94
2023-12-30T00:48:57.763Z,101406.00
2023-12-30T00:51:25.205Z,101406.00
2023-12-30T00:53:51.925Z,101409.31
2023-12-30T00:56:18.551Z,101404.53
2023-12-30T00:58:45.235Z,101403.88
2023-12-30T01:01:12.155Z,101399.06
2023-12-30T01:03:41.449Z,101409.78
2023-12-30T01:06:08.341Z,101403.31
2023-12-30T01:08:34.984Z,101409.06
2023-12-30T01:11:01.631Z,101405.56
2023-12-30T01:13:28.260Z,101413.97
2023-12-30T01:15:54.951Z,101408.34
2023-12-30T01:18:21.763Z,101416.22
2023-12-30T01:20:48.494Z,101418.66
2023-12-30T01:23:15.616Z,101420.91
2023-12-30T01:25:43.546Z,101428.44
2023-12-30T01:28:10.475Z,101421.50
2023-12-30T01:30:41.302Z,101420.84
2023-12-30T01:33:08.326Z,101416.72
2023-12-30T01:35:35.707Z,101420.25
2023-12-30T01:38:04.150Z,101416.59
2023-12-30T01:40:31.960Z,101421.13
2023-12-30T01:42:58.735Z,101419.13
2023-12-30T01:45:25.362Z,101428.88
2023-12-30T01:47:52.474Z,101419.97
2023-12-30T01:50:19.843Z,101437.16
2023-12-30T01:52:48.352Z,101430.81
2023-12-30T01:55:16.461Z,101441.50
2023-12-30T01:57:45.753Z,101440.53
2023-12-30T02:00:21.224Z,101449.72
2023-12-30T02:02:50.090Z,101455.94
2023-12-30T02:05:17.489Z,101451.50
2023-12-30T02:07:46.590Z,101452.63
2023-12-30T02:10:13.796Z,101446.19
2023-12-30T02:12:40.884Z,101445.66
2023-12-30T02:15:22.953Z,101456.31
2023-12-30T02:17:53.094Z,101451.50
2023-12-30T02:20:19.771Z,101443.09
2023-12-30T02:22:46.496Z,101449.63
2023-12-30T02:25:13.178Z,101451.06
2023-12-30T02:27:39.784Z,101450.22
2023-12-30T02:30:06.852Z,101450.38
2023-12-30T02:32:33.440Z,101439.84
2023-12-30T02:35:00.050Z,101451.81
2023-12-30T02:37:26.712Z,101449.09
2023-12-30T02:39:53.374Z,101450.47
2023-12-30T02:42:19.959Z,101446.53
2023-12-30T02:44:46.522Z,101444.72
2023-12-30T02:47:13.208Z,101435.41
2023-12-30T02:49:43.625Z,101438.16
2023-12-30T02:52:10.499Z,101434.03
2023-12-30T02:54:37.135Z,101446.53
2023-12-30T02:57:04.381Z,101433.38
2023-12-30T02:59:31.802Z,101437.50
2023-12-30T03:01:58.389Z,101439.38
2023-12-30T03:08:05.737Z,101435.91
2023-12-30T03:10:32.302Z,101439.84
2023-12-30T03:12:59.062Z,101433.53
2023-12-30T03:15:25.629Z,101443.69
2023-12-30T03:17:52.339Z,101444.00
2023-12-30T03:20:19.227Z,101441.50
2023-12-30T03:22:45.798Z,101440.06
2023-12-30T03:25:12.408Z,101443.84
2023-12-30T03:27:38.961Z,101448.09
2023-12-30T03:30:06.898Z,101446.94
2023-12-30T03:32:33.681Z,101452.50
2023-12-30T03:35:00.318Z,101443.38
2023-12-30T03:37:26.974Z,101445.94
2023-12-30T03:39:53.696Z,101449.16
2023-12-30T03:42:20.309Z,101450.88
2023-12-30T03:44:46.838Z,101452.31
2023-12-30T03:47:13.680Z,101445.53
2023-12-30T03:49:40.276Z,101442.69
2023-12-30T03:52:07.025Z,101451.31
2023-12-30T03:54:33.685Z,101443.63
2023-12-30T03:57:00.214Z,101436.56
2023-12-30T03:59:26.787Z,101438.09
2023-12-30T04:01:53.409Z,101438.13
2023-12-30T04:04:20.158Z,101421.94
2023-12-30T04:06:46.755Z,101420.06
2023-12-30T04:09:13.499Z,101421.03
2023-12-30T04:11:40.098Z,101426.28
2023-12-30T04:14:06.739Z,101418.69
2023-12-30T04:16:33.371Z,101423.84
2023-12-30T04:19:00.101Z,101417.59
2023-12-30T04:21:26.804Z,101413.88
2023-12-30T04:23:53.473Z,101412.09
2023-12-30T04:26:20.129Z,101418.75
2023-12-30T04:28:47.817Z,101416.25
2023-12-30T04:31:14.504Z,101414.06
2023-12-30T04:33:41.184Z,101419.44
2023-12-30T04:36:08.244Z,101418.91
2023-12-30T04:38:35.137Z,101424.28
2023-12-30T04:41:01.719Z,101421.91
2023-12-30T04:43:28.328Z,101419.59
2023-12-30T04:45:54.938Z,101411.94
2023-12-30T04:48:21.688Z,101409.94
2023-12-30T04:50:48.358Z,101403.53
2023-12-30T04:53:14.937Z,101400.91
2023-12-30T04:55:42.527Z,101395.13
2023-12-30T04:58:09.163Z,101395.25
2023-12-30T05:00:36.081Z,101389.19
2023-12-30T05:03:03.246Z,101396.94
2023-12-30T05:05:30.020Z,101386.84
2023-12-30T05:07:56.616Z,101387.97
2023-12-30T05:10:23.286Z,101383.25
2023-12-30T05:12:50.959Z,101381.06
2023-12-30T05:15:17.856Z,101389.69
2023-12-30T05:17:45.355Z,101396.72
2023-12-30T05:20:13.629Z,101395.09
2023-12-30T05:22:41.587Z,101395.53
2023-12-30T05:25:08.287Z,101396.81
2023-12-30T05:27:34.918Z,101401.38
2023-12-30T05:30:01.485Z,101405.94
2023-12-30T05:32:28.106Z,101409.41
2023-12-30T05:34:54.782Z,101404.00
2023-12-30T05:37:21.383Z,101409.25
2023-12-30T05:39:48.037Z,101411.03
2023-12-30T05:42:14.568Z,101412.56
2023-12-30T05:44:41.161Z,101405.88
2023-12-30T05:47:07.717Z,101404.25
2023-12-30T05:49:36.728Z,101407.72
2023-12-30T05:52:03.585Z,101400.78
2023-12-30T05:54:30.302Z,101404.38
2023-12-30T05:56:56.928Z,101404.94
2023-12-30T05:59:23.547Z,101409.06
2023-12-30T06:01:50.160Z,101413.06
2023-12-30T06:04:17.160Z,101411.13
2023-12-30T06:06:44.432Z,101409.22
2023-12-30T06:09:11.125Z,101413.34
2023-12-30T06:11:40.113Z,101412.34
2023-12-30T06:14:06.706Z,101412.91
2023-12-30T06:16:33.408Z,101412.09
2023-12-30T06:19:00.131Z,101409.16
2023-12-30T06:21:26.950Z,101408.31
2023-12-30T06:23:53.550Z,101404.34
2023-12-30T06:26:20.115Z,101415.66
2023-12-30T06:28:46.802Z,101413.88
2023-12-30T06:31:14.056Z,101412.09
2023-12-30T06:33:41.431Z,101406.69
2023-12-30T06:36:08.811Z,101412.25
2023-12-30T06:38:36.551Z,101413.22
2023-12-30T06:41:06.967Z,101411.84
2023-12-30T06:43:33.546Z,101412.66
2023-12-30T06:46:04.012Z,101406.03
2023-12-30T06:48:30.656Z,101408.66
2023-12-30T06:50:58.134Z,101409.94
2023-12-30T06:53:24.703Z,101415.66
2023-12-30T06:55:51.268Z,101409.00
2023-12-30T06:58:17.986Z,101402.91
2023-12-30T07:00:44.587Z,101412.31
2023-12-30T07:03:12.342Z,101397.75
2023-12-30T07:05:39.076Z,101400.78
2023-12-30T07:08:06.106Z,101403.41
2023-12-30T07:10:32.794Z,101402.75
2023-12-30T07:12:59.662Z,101407.16
2023-12-30T07:15:26.632Z,101405.47
2023-12-30T07:17:53.302Z,101413.75
2023-12-30T07:20:20.321Z,101408.66
2023-12-30T07:22:46.841Z,101407.53
2023-12-30T07:25:14.100Z,101406.72
2023-12-30T07:27:40.699Z,101407.25
2023-12-30T07:30:07.807Z,101412.91
2023-12-30T07:32:34.589Z,101409.72
2023-12-30T07:35:01.462Z,101403.66
2023-12-30T07:37:28.957Z,101402.97
2023-12-30T07:39:55.926Z,101398.81
2023-12-30T07:42:23.695Z,101409.59
2023-12-30T07:44:51.620Z,101410.13
2023-12-30T07:47:18.267Z,101406.91
2023-12-30T07:49:44.936Z,101416.22
2023-12-30T07:52:11.858Z,101413.44
2023-12-30T07:54:38.432Z,101412.31
2023-12-30T07:57:05.255Z,101417.44
2023-12-30T07:59:31.842Z,101403.84
2023-12-30T08:01:58.632Z,101404.91
2023-12-30T08:04:25.830Z,101411.91
2023-12-30T08:06:52.585Z,101411.88
2023-12-30T08:09:19.110Z,101408.31
2023-12-30T08:11:54.819Z,101405.50
2023-12-30T08:14:28.454Z,101408.34
2023-12-30T08:16:55.031Z,101411.88
2023-12-30T08:19:21.655Z,101416.53
2023-12-30T08:21:48.266Z,101421.88
2023-12-30T08:24:17.766Z,101417.97
2023-12-30T08:26:44.614Z,101423.44
2023-12-30T08:29:11.359Z,101422.00
2023-12-30T08:31:38.184Z,101428.31
2023-12-30T08:34:05.045Z,101425.09
2023-12-30T08:36:31.715Z,101426.41
2023-12-30T08:38:58.304Z,101434.84
2023-12-30T08:41:29.001Z,101438.69
2023-12-30T08:43:57.770Z,101437.09
2023-12-30T08:46:24.589Z,101436.78
2023-12-30T08:48:51.339Z,101435.97
2023-12-30T08:51:18.053Z,101434.72
2023-12-30T08:53:44.638Z,101440.66
2023-12-30T08:56:11.259Z,101443.78
2023-12-30T08:58:38.104Z,101430.16
2023-12-30T09:01:04.930Z,101428.19
2023-12-30T09:03:31.600Z,101433.00
2023-12-30T09:05:58.267Z,101436.31
2023-12-30T09:08:24.842Z,101434.47
2023-12-30T09:10:51.395Z,101429.88
2023-12-30T09:13:18.221Z,101431.41
2023-12-30T09:15:44.879Z,101430.88
2023-12-30T09:18:14.834Z,101430.56
2023-12-30T09:20:42.066Z,101434.19
2023-12-30T09:23:08.628Z,101428.75
2023-12-30T09:25:35.550Z,101434.38
2023-12-30T09:28:02.229Z,101437.22
2023-12-30T09:30:29.305Z,101433.09
2023-12-30T09:32:55.963Z,101437.09
2023-12-30T09:35:22.731Z,101443.41
2023-12-30T09:37:49.696Z,101453.63
2023-12-30T09:40:16.343Z,101458.41
2023-12-30T09:42:48.318Z,101454.16
2023-12-30T09:46:06.121Z,101439.81
2023-12-30T09:48:52.755Z,101447.94
2023-12-30T09:51:19.530Z,101443.69
2023-12-30T09:53:46.174Z,101452.47
2023-12-30T09:56:13.778Z,101458.59
2023-12-30T09:58:41.400Z,101452.38
2023-12-30T10:01:08.353Z,101461.78
2023-12-30T10:03:35.607Z,101465.75
2023-12-30T10:06:05.481Z,101463.13
2023-12-30T10:08:32.107Z,101457.84
2023-12-30T10:10:58.820Z,101471.03
2023-12-30T10:13:28.349Z,101471.56
2023-12-30T10:15:58.812Z,101463.28
2023-12-30T10:18:26.004Z,101471.72
2023-12-30T10:20:53.075Z,101474.03
2023-12-30T10:23:19.633Z,101463.47
2023-12-30T10:25:47.055Z,101470.25
2023-12-30T10:28:14.108Z,101463.78
2023-12-30T10:30:40.964Z,101469.41
2023-12-30T10:33:15.443Z,101473.84
2023-12-30T10:35:43.598Z,101480.97
2023-12-30T10:38:11.384Z,101479.81
2023-12-30T10:40:39.575Z,101477.50
2023-12-30T10:43:07.176Z,101472.06
2023-12-30T10:45:34.269Z,101469.06
2023-12-30T10:48:02.038Z,101473.69
2023-12-30T10:50:29.149Z,101480.44
2023-12-30T10:53:07.007Z,101471.53
2023-12-30T10:55:35.116Z,101471.72
2023-12-30T10:58:18.398Z,101478.50
2023-12-30T11:00:52.900Z,101480.66
2023-12-30T11:03:20.975Z,101477.84
2023-12-30T11:06:08.386Z,101479.94
2023-12-30T11:08:36.072Z,101472.13
2023-12-30T11:11:05.154Z,101474.72
2023-12-30T11:13:36.183Z,101469.50
2023-12-30T11:16:16.637Z,101482.09
2023-12-30T11:18:52.075Z,101479.44
2023-12-30T11:21:35.003Z,101477.41
2023-12-30T11:24:03.028Z,101493.81
2023-12-30T11:26:30.534Z,101495.28
2023-12-30T11:29:02.086Z,101499.75
2023-12-30T11:31:33.364Z,101492.44
2023-12-30T11:34:01.017Z,101495.25
2023-12-30T11:36:29.274Z,101497.94
2023-12-30T11:38:58.684Z,101503.22
2023-12-30T11:41:26.741Z,101503.25
2023-12-30T11:43:55.932Z,101515.63
2023-12-30T11:46:22.858Z,101493.53
2023-12-30T11:48:49.751Z,101489.34
2023-12-30T11:51:27.508Z,101480.75
2023-12-30T11:53:54.610Z,101466.81
2023-12-30T11:56:25.400Z,101465.53
2023-12-30T11:58:52.920Z,101464.78
2023-12-30T12:01:20.257Z,101463.78
2023-12-30T12:03:46.898Z,101459.13
2023-12-30T12:06:14.973Z,101456.31
2023-12-30T12:08:42.686Z,101461.50
2023-12-30T12:11:10.249Z,101457.78
2023-12-30T12:13:36.909Z,101455.38
2023-12-30T12:16:05.530Z,101457.78
2023-12-30T12:18:33.016Z,101454.63
2023-12-30T12:21:04.339Z,101455.19
2023-12-30T12:23:32.262Z,101452.50
2023-12-30T12:25:59.994Z,101446.84
2023-12-30T12:28:26.606Z,101452.38
2023-12-30T12:30:53.368Z,101447.13
2023-12-30T12:33:20.639Z,101450.59
2023-12-30T12:35:47.460Z,101444.44
2023-12-30T12:38:14.346Z,101453.03
2023-12-30T12:40:40.955Z,101443.75
2023-12-30T12:43:07.787Z,101433.09
2023-12-30T12:45:34.455Z,101431.53
2023-12-30T12:48:01.211Z,101445.38
2023-12-30T12:50:27.995Z,101438.88
2023-12-30T12:52:54.579Z,101442.88
2023-12-30T12:55:21.234Z,101443.22
2023-12-30T12:57:47.809Z,101440.94
2023-12-30T13:00:14.910Z,101437.06
2023-12-30T13:02:41.538Z,101431.13
2023-12-30T13:08:53.083Z,101407.53
2023-12-30T13:11:27.932Z,101408.84
2023-12-30T13:13:55.904Z,101402.78
2023-12-30T13:16:22.768Z,101392.06
2023-12-30T13:18:49.639Z,101392.59
2023-12-30T13:21:16.478Z,101395.59
2023-12-30T13:23:43.085Z,101388.31
2023-12-30T13:26:09.746Z,101392.97
2023-12-30T13:28:36.675Z,101382.53
2023-12-30T13:31:03.464Z,101381.75
2023-12-30T13:33:30.231Z,101379.72
2023-12-30T13:35:57.485Z,101370.47
2023-12-30T13:38:25.176Z,101374.94
2023-12-30T13:40:54.596Z,101365.69
2023-12-30T13:43:21.943Z,101358.91
2023-12-30T13:45:49.701Z,101363.41
2023-12-30T13:48:22.485Z,101366.16
2023-12-30T13:50:56.261Z,101361.69
2023-12-30T13:53:25.572Z,101358.91
2023-12-30T13:55:54.425Z,101353.31
2023-12-30T13:58:21.308Z,101359.97
2023-12-30T14:00:48.693Z,101347.38
2023-12-30T14:03:16.703Z,101339.75
2023-12-30T14:05:47.113Z,101334.75
2023-12-30T14:08:32.700Z,101336.06
2023-12-30T14:11:06.651Z,101322.81
2023-12-30T14:13:33.376Z,101338.03
2023-12-30T14:16:00.171Z,101324.63
2023-12-30T14:18:27.069Z,101325.25
2023-12-30T14:20:53.734Z,101315.34
2023-12-30T14:23:20.264Z,101307.38
2023-12-30T14:25:47.013Z,101315.16
2023-12-30T14:28:13.732Z,101314.69
2023-12-30T14:30:40.611Z,101316.53
2023-12-30T14:33:07.651Z,101301.22
2023-12-30T14:35:34.584Z,101306.41
2023-12-30T14:38:02.727Z,101303.28
2023-12-30T14:40:29.868Z,101305.44
2023-12-30T14:42:56.718Z,101303.81
2023-12-30T14:45:23.324Z,101315.19
2023-12-30T14:47:50.414Z,101313.19
2023-12-30T14:50:17.071Z,101312.84
2023-12-30T14:52:44.407Z,101308.88
2023-12-30T14:55:12.381Z,101319.28
2023-12-30T14:57:42.727Z,101308.50
2023-12-30T15:00:16.408Z,101307.34
2023-12-30T15:02:45.087Z,101303.03
2023-12-30T15:05:14.846Z,101297.75
2023-12-30T15:07:43.500Z,101293.28
2023-12-30T15:10:12.057Z,101287.81
2023-12-30T15:12:39.520Z,101291.81
2023-12-30T15:15:08.112Z,101280.22
2023-12-30T15:17:34.905Z,101273.56
2023-12-30T15:20:01.939Z,101280.06
2023-12-30T15:22:30.739Z,101280.06
2023-12-30T15:24:58.179Z,101277.94
2023-12-30T15:27:25.005Z,101269.34
2023-12-30T15:29:51.569Z,101269.81
2023-12-30T15:32:18.289Z,101263.34
2023-12-30T15:34:45.361Z,101272.28
2023-12-30T15:37:15.004Z,101259.56
2023-12-30T15:39:41.777Z,101258.47
2023-12-30T15:42:08.557Z,101255.88
2023-12-30T15:44:38.332Z,101257.22
2023-12-30T15:47:08.311Z,101260.25
2023-12-30T15:49:35.384Z,101266.22
2023-12-30T15:52:02.373Z,101261.28
2023-12-30T15:54:28.984Z,101261.81
2023-12-30T15:56:55.605Z,101252.38
2023-12-30T15:59:22.200Z,101264.63
2023-12-30T16:01:49.044Z,101259.00
2023-12-30T16:04:15.693Z,101251.38
2023-12-30T16:06:42.549Z,101247.34
2023-12-30T16:09:09.129Z,101237.31
2023-12-30T16:11:36.767Z,101247.59
2023-12-30T16:14:03.406Z,101252.22
2023-12-30T16:16:30.081Z,101254.09
2023-12-30T16:18:56.680Z,101257.53
2023-12-30T16:21:23.376Z,101259.34
2023-12-30T16:23:49.961Z,101259.66
2023-12-30T16:26:17.120Z,101254.50
2023-12-30T16:28:44.777Z,101256.06
2023-12-30T16:31:11.670Z,101247.47
2023-12-30T16:33:41.693Z,101243.09
2023-12-30T16:36:09.797Z,101246.38
2023-12-30T16:38:36.969Z,101252.88
2023-12-30T16:41:03.918Z,101250.53
2023-12-30T16:43:33.328Z,101244.22
2023-12-30T16:46:00.421Z,101241.75
2023-12-30T16:48:27.293Z,101244.88
2023-12-30T16:50:53.988Z,101246.81
2023-12-30T16:53:20.757Z,101240.72
2023-12-30T16:55:48.437Z,101241.88
2023-12-30T16:58:15.279Z,101235.25
2023-12-30T17:00:41.884Z,101232.59
2023-12-30T17:03:08.613Z,101238.19
2023-12-30T17:05:35.175Z,101223.00
2023-12-30T17:08:01.737Z,101216.72
2023-12-30T17:10:28.316Z,101213.91
2023-12-30T17:12:54.868Z,101207.13
2023-12-30T17:15:21.432Z,101200.84
2023-12-30T17:17:48.140Z,101200.31
2023-12-30T17:20:16.929Z,101206.44
2023-12-30T17:22:43.815Z,101198.66
2023-12-30T17:25:10.543Z,101196.34
2023-12-30T17:27:37.918Z,101195.53
2023-12-30T17:30:05.107Z,101187.25
2023-12-30T17:32:31.736Z,101189.63
2023-12-30T17:34:58.269Z,101182.19
2023-12-30T17:37:25.411Z,101175.09
2023-12-30T17:39:52.292Z,101168.31
2023-12-30T17:42:18.875Z,101167.50
2023-12-30T17:44:45.763Z,101166.00
2023-12-30T17:47:12.377Z,101155.59
2023-12-30T17:49:38.896Z,101157.88
2023-12-30T17:52:05.780Z,101153.09
2023-12-30T17:54:32.886Z,101155.91
2023-12-30T17:56:59.564Z,101140.03
2023-12-30T17:59:26.202Z,101132.94
2023-12-30T18:01:52.826Z,101130.47
2023-12-30T18:04:19.433Z,101124.56
2023-12-30T18:06:46.002Z,101113.03
2023-12-30T18:09:14.128Z,101099.88
2023-12-30T18:11:40.737Z,101101.13
2023-12-30T18:14:12.140Z,101088.16
2023-12-30T18:16:41.657Z,101082.22
2023-12-30T18:19:08.480Z,101083.75
2023-12-30T18:21:35.195Z,101086.94
2023-12-30T18:24:01.726Z,101082.94
2023-12-30T18:26:28.415Z,101087.03
2023-12-30T18:28:55.002Z,101068.63
2023-12-30T18:31:21.604Z,101087.25
2023-12-30T18:33:48.356Z,101075.31
2023-12-30T18:36:15.048Z,101083.91
2023-12-30T18:38:41.565Z,101075.78
2023-12-30T18:41:08.294Z,101071.47
2023-12-30T18:43:35.986Z,101065.53
2023-12-30T18:46:02.766Z,101061.44
2023-12-30T18:48:29.969Z,101060.97
2023-12-30T18:50:56.643Z,101064.63
2023-12-30T18:53:23.281Z,101060.00
2023-12-30T18:55:49.907Z,101054.97
2023-12-30T18:58:16.688Z,101063.06
2023-12-30T19:00:43.365Z,101048.69
2023-12-30T19:03:11.441Z,101049.53
2023-12-30T19:05:38.299Z,101044.56
2023-12-30T19:08:05.253Z,101038.56
2023-12-30T19:10:31.892Z,101029.44
2023-12-30T19:12:58.675Z,101028.47
2023-12-30T19:15:25.518Z,101020.53
2023-12-30T19:17:52.281Z,101022.34
2023-12-30T19:20:19.332Z,101017.88
2023-12-30T19:22:45.904Z,101018.75
2023-12-30T19:25:12.648Z,101013.47
2023-12-30T19:27:39.712Z,101008.19
2023-12-30T19:30:06.949Z,101006.66
2023-12-30T19:32:33.500Z,100996.69
2023-12-30T19:35:01.034Z,100982.47
2023-12-30T19:37:28.092Z,100982.81
2023-12-30T19:39:54.814Z,100977.44
2023-12-30T19:42:21.646Z,100973.81
2023-12-30T19:44:48.262Z,100966.66
2023-12-30T19:47:14.818Z,100950.91
2023-12-30T19:49:41.422Z,100947.25
2023-12-30T19:52:09.581Z,100938.13
2023-12-30T19:54:38.683Z,100936.13
2023-12-30T19:57:05.521Z,100924.88
2023-12-30T19:59:32.400Z,100926.34
2023-12-30T20:01:58.996Z,100922.03
2023-12-30T20:04:25.927Z,100911.56
2023-12-30T20:06:53.572Z,100906.34
2023-12-30T20:09:21.027Z,100904.53
2023-12-30T20:11:49.302Z,100880.97
2023-12-30T20:14:16.410Z,100873.72
2023-12-30T20:16:43.398Z,100871.06
2023-12-30T20:19:10.448Z,100878.88
2023-12-30T20:21:38.590Z,100867.16
2023-12-30T20:24:05.638Z,100869.53
2023-12-30T20:26:32.215Z,100870.69
2023-12-30T20:28:58.782Z,100870.69
2023-12-30T20:31:25.481Z,100868.63
2023-12-30T20:33:52.110Z,100851.47
2023-12-30T20:36:22.662Z,100845.47
2023-12-30T20:38:49.447Z,100838.53
2023-12-30T20:41:17.152Z,100837.28
2023-12-30T20:43:43.784Z,100833.91
2023-12-30T20:46:10.941Z,100832.25
2023-12-30T20:48:38.087Z,100823.50
2023-12-30T20:51:05.098Z,100818.56
2023-12-30T20:53:32.688Z,100814.28
2023-12-30T20:55:59.287Z,100803.91
2023-12-30T20:58:26.262Z,100804.72
2023-12-30T21:00:53.237Z,100794.50
2023-12-30T21:03:19.950Z,100783.66
2023-12-30T21:05:46.655Z,100777.00
2023-12-30T21:08:13.901Z,100777.75
2023-12-30T21:10:40.617Z,100778.09
2023-12-30T21:13:07.367Z,100769.00
2023-12-30T21:15:34.034Z,100763.25
2023-12-30T21:18:00.753Z,100759.78
2023-12-30T21:20:27.372Z,100766.25
2023-12-30T21:22:56.162Z,100752.13
2023-12-30T21:25:26.995Z,100747.34
2023-12-30T21:27:54.317Z,100741.97
2023-12-30T21:30:22.935Z,100738.13
2023-12-30T21:32:50.770Z,100726.53
2023-12-30T21:35:19.481Z,100721.88
2023-12-30T21:37:48.282Z,100723.56
2023-12-30T21:40:16.714Z,100726.25
2023-12-30T21:42:43.287Z,100723.44
2023-12-30T21:45:11.081Z,100720.78
2023-12-30T21:47:37.830Z,100714.66
2023-12-30T21:50:05.142Z,100716.13
2023-12-30T21:52:34.214Z,100710.66
2023-12-30T21:55:02.292Z,100715.00
2023-12-30T21:57:28.874Z,100715.63
2023-12-30T21:59:55.380Z,100707.69
2023-12-30T22:02:21.963Z,100711.59
2023-12-30T22:04:50.154Z,100712.47
2023-12-30T22:07:16.908Z,100715.38
2023-12-30T22:09:43.539Z,100704.22
2023-12-30T22:12:10.053Z,100705.28
2023-12-30T22:14:37.383Z,100709.63
2023-12-30T22:17:04.154Z,100694.69
2023-12-30T22:19:30.878Z,100686.59
2023-12-30T22:21:57.469Z,100678.47
2023-12-30T22:24:24.079Z,100676.25
2023-12-30T22:26:50.710Z,100671.78
2023-12-30T22:29:17.272Z,100670.34
2023-12-30T22:31:44.088Z,100651.44
2023-12-30T22:34:10.796Z,100645.09
2023-12-30T22:36:37.921Z,100648.75
2023-12-30T22:39:04.535Z,100651.00
2023-12-30T22:41:31.235Z,100645.75
2023-12-30T22:43:57.873Z,100653.06
2023-12-30T22:46:24.517Z,100643.34
2023-12-30T22:48:51.190Z,100634.19
2023-12-30T22:51:17.833Z,100621.97
2023-12-30T22:53:44.920Z,100612.41
2023-12-30T22:56:11.544Z,100612.59
2023-12-30T22:58:38.766Z,100604.47
2023-12-30T23:01:06.251Z,100585.31
2023-12-30T23:03:33.229Z,100580.22
2023-12-30T23:06:00.010Z,100575.13
2023-12-30T23:08:26.645Z,100565.69
2023-12-30T23:10:53.323Z,100572.78
2023-12-30T23:13:20.368Z,100578.09
2023-12-30T23:15:48.182Z,100577.28
2023-12-30T23:18:15.245Z,100577.44
2023-12-30T23:20:41.879Z,100580.47
2023-12-30T23:23:08.473Z,100583.53
2023-12-30T23:25:35.081Z,100579.06
2023-12-30T23:28:01.683Z,100581.72
2023-12-30T23:30:28.325Z,100584.00
2023-12-30T23:32:55.012Z,100572.25
2023-12-30T23:35:21.682Z,100566.75
2023-12-30T23:37:48.298Z,100559.81
2023-12-30T23:40:15.196Z,100552.88
2023-12-30T23:42:41.831Z,100547.59
2023-12-30T23:45:08.884Z,100555.94
2023-12-30T23:47:35.636Z,100534.28
2023-12-30T23:50:02.213Z,100535.91
2023-12-30T23:52:28.931Z,100533.66
2023-12-30T23:54:55.620Z,100528.16
2023-12-30T23:57:22.142Z,100526.53
2023-12-30T23:59:48.780Z,100520.63
